createdAt,value
2023-01-28T00:02:04.500Z,67.20
2023-01-28T00:05:07.524Z,67.07
2023-01-28T00:08:10.346Z,66.91
2023-01-28T00:11:13.983Z,66.69
2023-01-28T00:14:18.944Z,67.09
2023-01-28T00:17:21.653Z,66.89
2023-01-28T00:20:23.988Z,66.86
2023-01-28T00:23:28.557Z,66.69
2023-01-28T00:26:33.610Z,66.35
2023-01-28T00:29:37.850Z,66.39
2023-01-28T00:32:43.463Z,66.33
2023-01-28T00:35:47.949Z,66.31
2023-01-28T00:38:51.448Z,65.98
2023-01-28T00:41:55.448Z,65.83
2023-01-28T00:45:00.111Z,65.95
2023-01-28T00:48:02.705Z,66.15
2023-01-28T00:51:05.471Z,66.03
2023-01-28T00:54:08.187Z,65.85
2023-01-28T00:57:10.543Z,65.87
2023-01-28T01:00:13.392Z,65.69
2023-01-28T01:03:16.341Z,65.58
2023-01-28T01:06:19.476Z,65.54
2023-01-28T01:09:22.592Z,65.79
2023-01-28T01:12:25.264Z,65.43
2023-01-28T01:15:27.642Z,65.16
2023-01-28T01:18:31.673Z,64.66
2023-01-28T01:21:34.300Z,64.71
2023-01-28T01:24:36.939Z,65.00
2023-01-28T01:27:39.435Z,65.16
2023-01-28T01:30:42.045Z,65.00
2023-01-28T01:33:46.561Z,65.25
2023-01-28T01:36:49.200Z,65.24
2023-01-28T01:39:51.532Z,64.99
2023-01-28T01:42:54.116Z,64.96
2023-01-28T01:46:00.755Z,65.29
2023-01-28T01:52:30.846Z,65.19
2023-01-28T01:55:38.207Z,65.31
2023-01-28T01:58:43.665Z,65.17
2023-01-28T02:01:46.541Z,65.32
2023-01-28T02:04:49.317Z,65.35
2023-01-28T02:08:17.008Z,65.31
2023-01-28T02:11:20.396Z,65.46
2023-01-28T02:14:31.474Z,65.48
2023-01-28T02:17:35.994Z,65.35
2023-01-28T02:20:52.312Z,65.49
2023-01-28T02:24:37.104Z,65.67
2023-01-28T02:27:51.425Z,65.87
2023-01-28T02:31:09.120Z,65.71
2023-01-28T02:34:34.587Z,65.87
2023-01-28T02:38:00.721Z,66.01
2023-01-28T02:41:11.149Z,66.06
2023-01-28T02:44:14.530Z,66.11
2023-01-28T02:47:35.524Z,66.22
2023-01-28T02:50:58.314Z,66.26
2023-01-28T02:54:30.458Z,66.39
2023-01-28T02:57:55.910Z,66.52
2023-01-28T03:01:12.505Z,66.58
2023-01-28T03:04:30.851Z,66.52
2023-01-28T03:07:36.913Z,66.65
2023-01-28T03:10:39.677Z,66.73
2023-01-28T03:14:03.038Z,66.98
2023-01-28T03:17:30.874Z,66.94
2023-01-28T03:21:03.162Z,66.82
2023-01-28T03:24:32.207Z,66.98
2023-01-28T03:28:20.721Z,67.15
2023-01-28T03:31:43.375Z,66.99
2023-01-28T03:35:06.216Z,67.05
2023-01-28T03:38:22.972Z,66.97
2023-01-28T03:41:29.129Z,66.95
2023-01-28T03:44:51.749Z,66.90
2023-01-28T03:47:54.221Z,66.49
2023-01-28T03:50:57.511Z,66.51
2023-01-28T03:54:00.147Z,66.74
2023-01-28T03:57:03.077Z,66.60
2023-01-28T04:00:07.278Z,66.64
2023-01-28T04:03:19.440Z,66.70
2023-01-28T04:06:24.396Z,66.69
2023-01-28T04:09:27.468Z,66.88
2023-01-28T04:12:30.177Z,67.02
2023-01-28T04:15:33.084Z,67.17
2023-01-28T04:18:35.870Z,66.96
2023-01-28T04:21:38.617Z,66.87
2023-01-28T04:24:41.571Z,66.88
2023-01-28T04:27:44.341Z,66.71
2023-01-28T04:30:48.750Z,66.74
2023-01-28T04:33:54.244Z,66.56
2023-01-28T04:36:58.020Z,66.67
2023-01-28T04:40:00.623Z,66.57
2023-01-28T04:43:03.664Z,66.33
2023-01-28T04:46:06.458Z,66.19
2023-01-28T04:49:10.036Z,66.46
2023-01-28T04:52:14.296Z,66.69
2023-01-28T04:55:17.677Z,66.41
2023-01-28T04:58:21.151Z,66.58
2023-01-28T05:01:25.258Z,66.88
2023-01-28T05:04:28.055Z,66.82
2023-01-28T05:07:31.005Z,66.88
2023-01-28T05:10:33.564Z,66.86
2023-01-28T05:13:36.991Z,67.15
2023-01-28T05:16:40.286Z,67.19
2023-01-28T05:19:43.729Z,67.11
2023-01-28T05:22:47.994Z,66.85
2023-01-28T05:25:50.779Z,66.80
2023-01-28T05:28:53.171Z,66.76
2023-01-28T05:31:55.822Z,67.01
2023-01-28T05:34:58.709Z,67.00
2023-01-28T05:38:01.633Z,66.95
2023-01-28T05:41:04.120Z,66.86
2023-01-28T05:44:07.558Z,66.76
2023-01-28T05:47:10.282Z,66.63
2023-01-28T05:50:14.956Z,66.55
2023-01-28T05:53:18.433Z,66.50
2023-01-28T05:56:21.292Z,66.62
2023-01-28T05:59:23.695Z,66.45
2023-01-28T06:02:26.851Z,66.54
2023-01-28T06:05:30.278Z,66.65
2023-01-28T06:08:34.442Z,66.64
2023-01-28T06:11:37.060Z,67.22
2023-01-28T06:14:39.769Z,66.91
2023-01-28T06:17:42.639Z,66.92
2023-01-28T06:20:53.114Z,67.06
2023-01-28T06:23:55.756Z,67.02
2023-01-28T06:26:58.175Z,67.10
2023-01-28T06:30:01.832Z,67.14
2023-01-28T06:33:04.263Z,67.16
2023-01-28T06:36:07.609Z,67.34
2023-01-28T06:39:10.035Z,67.36
2023-01-28T06:42:12.675Z,67.48
2023-01-28T06:45:15.244Z,67.43
2023-01-28T06:48:20.475Z,67.51
2023-01-28T06:51:23.295Z,67.89
2023-01-28T06:54:26.025Z,67.92
2023-01-28T06:57:28.813Z,67.87
2023-01-28T07:00:31.793Z,67.83
2023-01-28T07:03:34.117Z,67.96
2023-01-28T07:06:36.807Z,68.11
2023-01-28T07:09:39.197Z,68.23
2023-01-28T07:12:41.823Z,68.46
2023-01-28T07:15:46.673Z,68.79
2023-01-28T07:18:58.950Z,68.82
2023-01-28T07:22:04.526Z,69.16
2023-01-28T07:25:08.413Z,69.05
2023-01-28T07:28:11.942Z,69.18
2023-01-28T07:31:14.718Z,69.45
2023-01-28T07:34:17.218Z,69.52
2023-01-28T07:37:20.493Z,69.74
2023-01-28T07:40:23.974Z,69.91
2023-01-28T07:43:26.670Z,69.88
2023-01-28T07:46:29.144Z,70.05
2023-01-28T07:49:34.223Z,70.38
2023-01-28T07:52:44.238Z,70.42
2023-01-28T07:55:46.981Z,70.51
2023-01-28T07:58:52.025Z,70.39
2023-01-28T08:01:55.200Z,70.77
2023-01-28T08:05:00.154Z,70.94
2023-01-28T08:08:02.715Z,71.08
2023-01-28T08:11:11.717Z,71.26
2023-01-28T08:14:14.158Z,71.24
2023-01-28T08:17:16.847Z,70.81
2023-01-28T08:20:19.160Z,70.84
2023-01-28T08:23:23.292Z,70.62
2023-01-28T08:26:26.687Z,70.36
2023-01-28T08:29:29.293Z,70.65
2023-01-28T08:32:31.619Z,70.37
2023-01-28T08:35:34.735Z,70.16
2023-01-28T08:38:37.482Z,70.52
2023-01-28T08:41:40.177Z,70.54
2023-01-28T08:44:42.532Z,70.72
2023-01-28T08:47:59.541Z,71.14
2023-01-28T08:51:02.293Z,71.21
2023-01-28T08:54:04.960Z,71.41
2023-01-28T08:57:07.422Z,71.21
2023-01-28T09:00:13.680Z,71.21
2023-01-28T09:03:17.125Z,71.07
2023-01-28T09:06:19.756Z,71.22
2023-01-28T09:09:22.406Z,71.37
2023-01-28T09:12:25.109Z,71.21
2023-01-28T09:15:27.506Z,71.39
2023-01-28T09:18:30.144Z,71.12
2023-01-28T09:21:32.449Z,71.23
2023-01-28T09:24:36.766Z,71.17
2023-01-28T09:27:40.880Z,71.14
2023-01-28T09:30:43.555Z,71.16
2023-01-28T09:33:47.772Z,70.77
2023-01-28T09:36:50.517Z,70.84
2023-01-28T09:39:52.809Z,70.98
2023-01-28T09:42:58.350Z,70.83
2023-01-28T09:46:05.079Z,70.72
2023-01-28T09:49:19.409Z,70.56
2023-01-28T09:52:24.492Z,70.83
2023-01-28T09:55:35.707Z,70.68
2023-01-28T09:58:38.067Z,70.10
2023-01-28T10:01:45.720Z,69.69
2023-01-28T10:05:16.452Z,69.84
2023-01-28T10:08:44.692Z,69.74
2023-01-28T10:12:13.256Z,69.07
2023-01-28T10:15:44.115Z,68.68
2023-01-28T10:18:51.356Z,68.35
2023-01-28T10:22:02.565Z,68.13
2023-01-28T10:25:21.929Z,67.85
2023-01-28T10:28:29.582Z,67.32
2023-01-28T10:31:39.144Z,66.83
2023-01-28T10:34:41.725Z,65.03
2023-01-28T10:37:44.704Z,63.83
2023-01-28T10:40:48.266Z,62.21
2023-01-28T10:43:51.036Z,61.22
2023-01-28T10:46:57.216Z,60.83
2023-01-28T10:50:02.830Z,59.99
2023-01-28T10:53:06.728Z,57.47
2023-01-28T10:56:17.418Z,56.03
2023-01-28T10:59:36.828Z,55.74
2023-01-28T11:02:39.983Z,56.08
2023-01-28T11:05:51.925Z,57.05
2023-01-28T11:08:55.075Z,58.15
2023-01-28T11:11:59.183Z,58.72
2023-01-28T11:15:05.930Z,59.64
2023-01-28T11:18:18.201Z,60.62
2023-01-28T11:21:24.492Z,60.64
2023-01-28T11:24:31.121Z,60.91
2023-01-28T11:27:34.003Z,60.86
2023-01-28T11:30:41.880Z,60.98
2023-01-28T11:34:04.933Z,61.18
2023-01-28T11:37:18.727Z,61.27
2023-01-28T11:40:22.350Z,61.21
2023-01-28T11:43:30.626Z,60.77
2023-01-28T11:46:54.011Z,60.87
2023-01-28T11:50:15.720Z,60.02
2023-01-28T11:53:40.252Z,59.55
2023-01-28T11:57:17.048Z,59.29
2023-01-28T12:00:31.706Z,59.64
2023-01-28T12:04:11.786Z,60.50
2023-01-28T12:07:35.369Z,60.25
2023-01-28T12:11:08.155Z,59.61
2023-01-28T12:14:28.733Z,59.92
2023-01-28T12:18:15.387Z,58.53
2023-01-28T12:21:26.591Z,59.35
2023-01-28T12:24:41.264Z,58.10
2023-01-28T12:27:57.470Z,57.81
2023-01-28T12:31:28.251Z,57.36
2023-01-28T12:34:42.903Z,58.60
2023-01-28T12:37:45.430Z,58.15
2023-01-28T12:41:10.512Z,58.33
2023-01-28T12:44:31.048Z,57.42
2023-01-28T12:47:38.329Z,57.15
2023-01-28T12:50:55.738Z,56.63
2023-01-28T12:54:05.795Z,57.27
2023-01-28T12:57:16.979Z,56.76
2023-01-28T13:00:24.316Z,58.09
2023-01-28T13:03:30.315Z,56.83
2023-01-28T13:06:48.299Z,57.65
2023-01-28T13:10:03.192Z,57.74
2023-01-28T13:13:07.627Z,57.40
2023-01-28T13:16:12.120Z,56.75
2023-01-28T13:19:20.549Z,57.70
2023-01-28T13:22:27.747Z,57.97
2023-01-28T13:25:36.264Z,56.94
2023-01-28T13:28:39.020Z,57.31
2023-01-28T13:31:44.346Z,57.04
2023-01-28T13:34:58.692Z,56.89
2023-01-28T13:38:14.295Z,57.21
2023-01-28T13:41:16.958Z,58.11
2023-01-28T13:44:29.891Z,57.47
2023-01-28T13:47:35.892Z,56.64
2023-01-28T13:50:43.426Z,57.21
2023-01-28T13:54:00.081Z,57.69
2023-01-28T13:57:06.675Z,57.97
2023-01-28T14:00:42.438Z,56.97
2023-01-28T14:04:23.091Z,57.09
2023-01-28T14:07:34.482Z,57.40
2023-01-28T14:10:52.267Z,56.99
2023-01-28T14:14:12.883Z,56.43
2023-01-28T14:17:44.709Z,57.18
2023-01-28T14:20:47.524Z,56.69
2023-01-28T14:23:53.469Z,57.39
2023-01-28T14:27:41.280Z,56.88
2023-01-28T14:30:54.737Z,58.69
2023-01-28T14:34:15.416Z,58.44
2023-01-28T14:37:22.303Z,59.81
2023-01-28T14:40:25.547Z,60.39
2023-01-28T14:43:28.392Z,60.89
2023-01-28T14:46:56.010Z,61.15
2023-01-28T14:50:19.927Z,61.27
2023-01-28T14:53:40.216Z,61.90
2023-01-28T14:57:05.005Z,62.03
2023-01-28T15:00:20.736Z,62.26
2023-01-28T15:03:25.401Z,62.88
2023-01-28T15:06:35.625Z,62.69
2023-01-28T15:09:38.296Z,63.17
2023-01-28T15:12:47.800Z,63.46
2023-01-28T15:15:50.686Z,63.56
2023-01-28T15:18:53.168Z,63.72
2023-01-28T15:21:57.914Z,63.73
2023-01-28T15:25:00.409Z,63.87
2023-01-28T15:28:03.196Z,64.25
2023-01-28T15:31:06.243Z,64.05
2023-01-28T15:34:20.686Z,64.09
2023-01-28T15:37:23.243Z,64.26
2023-01-28T15:40:26.186Z,64.00
2023-01-28T15:43:36.002Z,64.60
2023-01-28T15:46:40.233Z,64.62
2023-01-28T15:49:46.747Z,64.70
2023-01-28T15:52:55.537Z,64.85
2023-01-28T15:56:12.409Z,64.92
2023-01-28T15:59:28.399Z,64.91
2023-01-28T16:02:31.970Z,65.16
2023-01-28T16:05:38.926Z,65.20
2023-01-28T16:08:45.611Z,65.18
2023-01-28T16:11:48.764Z,65.32
2023-01-28T16:14:57.957Z,65.22
2023-01-28T16:18:00.759Z,65.72
2023-01-28T16:21:05.153Z,65.47
2023-01-28T16:24:20.849Z,65.87
2023-01-28T16:27:28.566Z,65.97
2023-01-28T16:30:31.337Z,66.04
2023-01-28T16:33:33.731Z,66.59
2023-01-28T16:36:36.517Z,67.11
2023-01-28T16:39:38.896Z,66.97
2023-01-28T16:42:41.675Z,67.48
2023-01-28T16:45:44.665Z,67.23
2023-01-28T16:48:47.288Z,67.84
2023-01-28T16:51:49.585Z,67.98
2023-01-28T16:54:52.261Z,67.15
2023-01-28T16:57:57.406Z,67.54
2023-01-28T17:01:00.199Z,68.76
2023-01-28T17:04:11.541Z,68.16
2023-01-28T17:07:15.927Z,67.73
2023-01-28T17:10:20.572Z,68.00
2023-01-28T17:13:23.456Z,67.83
2023-01-28T17:16:26.395Z,68.24
2023-01-28T17:19:29.058Z,68.61
2023-01-28T17:22:31.415Z,68.43
2023-01-28T17:25:40.681Z,69.24
2023-01-28T17:28:43.617Z,69.04
2023-01-28T17:31:46.357Z,68.27
2023-01-28T17:34:48.773Z,68.63
2023-01-28T17:37:55.323Z,68.33
2023-01-28T17:41:08.618Z,67.96
2023-01-28T17:44:12.974Z,68.86
2023-01-28T17:47:15.337Z,68.70
2023-01-28T17:50:17.973Z,68.41
2023-01-28T17:53:23.403Z,68.72
2023-01-28T17:56:28.708Z,68.89
2023-01-28T17:59:34.523Z,68.04
2023-01-28T18:02:38.943Z,68.42
2023-01-28T18:05:43.955Z,68.77
2023-01-28T18:08:46.465Z,68.65
2023-01-28T18:11:51.096Z,68.62
2023-01-28T18:14:55.856Z,68.94
2023-01-28T18:18:04.282Z,69.08
2023-01-28T18:21:18.891Z,68.51
2023-01-28T18:24:27.358Z,68.43
2023-01-28T18:27:30.200Z,69.09
2023-01-28T18:30:33.008Z,69.18
2023-01-28T18:33:37.864Z,69.04
2023-01-28T18:36:42.299Z,69.42
2023-01-28T18:39:45.714Z,69.15
2023-01-28T18:42:48.593Z,69.18
2023-01-28T18:46:00.308Z,69.15
2023-01-28T18:49:08.718Z,69.10
2023-01-28T18:52:11.293Z,68.98
2023-01-28T18:55:18.370Z,68.67
2023-01-28T18:58:21.140Z,67.75
2023-01-28T19:01:27.483Z,68.60
2023-01-28T19:04:33.216Z,67.97
2023-01-28T19:07:36.107Z,68.54
2023-01-28T19:10:49.308Z,69.03
2023-01-28T19:13:57.885Z,68.80
2023-01-28T19:17:06.800Z,68.16
2023-01-28T19:20:11.791Z,68.16
2023-01-28T19:23:15.151Z,68.65
2023-01-28T19:26:21.316Z,68.47
2023-01-28T19:29:25.695Z,68.61
2023-01-28T19:32:28.630Z,68.34
2023-01-28T19:35:33.233Z,68.39
2023-01-28T19:38:38.135Z,68.00
2023-01-28T19:41:40.780Z,68.79
2023-01-28T19:44:45.816Z,68.41
2023-01-28T19:47:49.675Z,68.82
2023-01-28T19:50:55.078Z,69.02
2023-01-28T19:53:58.102Z,68.99
2023-01-28T19:57:01.048Z,68.74
2023-01-28T20:00:05.373Z,69.14
2023-01-28T20:03:08.466Z,68.83
2023-01-28T20:06:18.069Z,68.73
2023-01-28T20:09:20.704Z,68.56
2023-01-28T20:12:26.162Z,68.70
2023-01-28T20:15:40.537Z,68.42
2023-01-28T20:18:43.602Z,67.94
2023-01-28T20:21:46.776Z,67.87
2023-01-28T20:24:54.715Z,67.92
2023-01-28T20:28:00.030Z,68.94
2023-01-28T20:31:10.527Z,68.35
2023-01-28T20:34:17.222Z,68.76
2023-01-28T20:37:20.328Z,68.29
2023-01-28T20:40:23.067Z,67.98
2023-01-28T20:43:27.837Z,67.63
2023-01-28T20:46:33.287Z,68.17
2023-01-28T20:49:36.786Z,68.22
2023-01-28T20:52:42.601Z,68.82
2023-01-28T20:55:56.653Z,68.63
2023-01-28T20:59:02.311Z,67.84
2023-01-28T21:02:14.361Z,67.70
2023-01-28T21:05:16.966Z,68.28
2023-01-28T21:08:19.971Z,67.52
2023-01-28T21:11:23.831Z,68.26
2023-01-28T21:14:27.728Z,68.27
2023-01-28T21:17:31.891Z,68.27
2023-01-28T21:20:37.062Z,68.61
2023-01-28T21:23:39.859Z,68.19
2023-01-28T21:26:42.619Z,68.08
2023-01-28T21:29:45.156Z,68.26
2023-01-28T21:32:47.877Z,67.97
2023-01-28T21:35:50.240Z,68.38
2023-01-28T21:38:59.221Z,67.94
2023-01-28T21:42:01.528Z,67.70
2023-01-28T21:45:07.531Z,68.12
2023-01-28T21:48:09.892Z,67.43
2023-01-28T21:51:31.644Z,67.94
2023-01-28T21:54:36.800Z,67.38
2023-01-28T21:57:40.144Z,67.37
2023-01-28T22:00:46.788Z,67.36
2023-01-28T22:03:51.401Z,68.68
2023-01-28T22:06:55.174Z,68.54
2023-01-28T22:09:58.179Z,68.42
2023-01-28T22:13:00.682Z,68.24
2023-01-28T22:16:06.011Z,68.24
2023-01-28T22:19:09.102Z,67.43
2023-01-28T22:22:13.350Z,67.99
2023-01-28T22:25:16.548Z,67.56
2023-01-28T22:28:19.386Z,68.19
2023-01-28T22:31:27.162Z,67.80
2023-01-28T22:34:29.907Z,67.70
2023-01-28T22:37:32.365Z,68.01
2023-01-28T22:40:35.748Z,67.98
2023-01-28T22:43:43.782Z,67.73
2023-01-28T22:46:49.414Z,68.18
2023-01-28T22:49:51.924Z,68.31
2023-01-28T22:52:54.637Z,67.72
2023-01-28T22:55:57.184Z,68.61
2023-01-28T22:59:04.027Z,67.87
2023-01-28T23:02:07.897Z,67.48
2023-01-28T23:05:11.242Z,67.26
2023-01-28T23:08:16.161Z,68.16
2023-01-28T23:11:28.667Z,67.44
2023-01-28T23:14:49.847Z,67.48
2023-01-28T23:18:11.051Z,67.29
2023-01-28T23:21:38.711Z,67.87
2023-01-28T23:24:41.822Z,67.47
2023-01-28T23:27:44.506Z,67.08
2023-01-28T23:30:47.274Z,66.86
2023-01-28T23:33:49.727Z,66.75
2023-01-28T23:36:52.341Z,66.68
2023-01-28T23:39:54.701Z,67.23
2023-01-28T23:42:58.313Z,66.83
2023-01-28T23:46:00.799Z,66.59
2023-01-28T23:49:04.667Z,66.34
2023-01-28T23:52:07.830Z,66.58
2023-01-28T23:55:10.672Z,66.34
2023-01-28T23:58:13.074Z,67.33
